createdAt,value
2023-04-15T00:01:24.261Z,100841.84
2023-04-15T00:03:55.442Z,100847.66
2023-04-15T00:06:22.863Z,100841.25
2023-04-15T00:08:52.472Z,100848.09
2023-04-15T00:11:20.314Z,100851.47
2023-04-15T00:13:47.560Z,100844.13
2023-04-15T00:16:14.836Z,100837.03
2023-04-15T00:18:41.902Z,100844.66
2023-04-15T00:21:09.723Z,100842.69
2023-04-15T00:23:39.714Z,100846.63
2023-04-15T00:26:10.061Z,100845.09
2023-04-15T00:28:37.510Z,100844.13
2023-04-15T00:31:04.565Z,100847.06
2023-04-15T00:33:32.001Z,100853.47
2023-04-15T00:36:00.561Z,100844.66
2023-04-15T00:38:28.264Z,100847.34
2023-04-15T00:40:56.571Z,100854.56
2023-04-15T00:43:23.847Z,100853.47
2023-04-15T00:45:53.841Z,100848.34
2023-04-15T00:48:21.285Z,100850.34
2023-04-15T00:50:52.115Z,100852.31
2023-04-15T00:53:19.243Z,100856.84
2023-04-15T00:55:46.346Z,100857.97
2023-04-15T00:58:13.348Z,100857.25
2023-04-15T01:00:43.557Z,100866.19
2023-04-15T01:03:12.030Z,100854.88
2023-04-15T01:05:39.468Z,100863.19
2023-04-15T01:08:09.909Z,100850.59
2023-04-15T01:10:38.026Z,100858.81
2023-04-15T01:13:05.301Z,100853.72
2023-04-15T01:15:33.586Z,100854.69
2023-04-15T01:18:03.362Z,100848.34
2023-04-15T01:20:34.685Z,100848.22
2023-04-15T01:23:02.679Z,100851.19
2023-04-15T01:25:34.485Z,100856.81
2023-04-15T01:28:02.268Z,100849.19
2023-04-15T01:30:30.137Z,100838.97
2023-04-15T01:32:57.577Z,100842.91
2023-04-15T01:35:25.109Z,100839.25
2023-04-15T01:37:53.010Z,100836.13
2023-04-15T01:40:20.802Z,100836.41
2023-04-15T01:42:47.984Z,100831.03
2023-04-15T01:45:15.749Z,100833.84
2023-04-15T01:47:43.758Z,100833.28
2023-04-15T01:50:11.384Z,100834.28
2023-04-15T01:52:40.373Z,100837.94
2023-04-15T01:55:08.670Z,100836.41
2023-04-15T01:57:35.954Z,100831.28
2023-04-15T02:00:04.869Z,100832.66
2023-04-15T02:02:40.384Z,100834.94
2023-04-15T02:05:11.159Z,100840.31
2023-04-15T02:07:38.239Z,100842.41
2023-04-15T02:10:05.677Z,100848.63
2023-04-15T02:12:36.056Z,100848.63
2023-04-15T02:15:03.104Z,100859.38
2023-04-15T02:17:39.021Z,100861.19
2023-04-15T02:20:08.818Z,100853.31
2023-04-15T02:22:35.834Z,100846.22
2023-04-15T02:25:02.834Z,100845.06
2023-04-15T02:27:32.894Z,100846.78
2023-04-15T02:30:02.983Z,100851.41
2023-04-15T02:32:30.324Z,100844.50
2023-04-15T02:34:57.300Z,100843.66
2023-04-15T02:37:28.779Z,100845.75
2023-04-15T02:40:00.723Z,100844.19
2023-04-15T02:42:29.017Z,100854.91
2023-04-15T02:44:56.569Z,100853.50
2023-04-15T02:47:29.383Z,100847.44
2023-04-15T02:49:58.670Z,100850.38
2023-04-15T02:52:29.164Z,100848.66
2023-04-15T02:55:00.712Z,100839.19
2023-04-15T02:57:31.324Z,100840.19
2023-04-15T03:00:06.497Z,100842.44
2023-04-15T03:02:39.439Z,100845.22
2023-04-15T03:05:07.524Z,100848.31
2023-04-15T03:07:34.432Z,100853.69
2023-04-15T03:10:02.988Z,100851.66
2023-04-15T03:12:31.118Z,100849.13
2023-04-15T03:14:58.820Z,100857.28
2023-04-15T03:17:33.955Z,100850.50
2023-04-15T03:20:03.969Z,100858.09
2023-04-15T03:22:34.505Z,100852.38
2023-04-15T03:25:02.754Z,100855.19
2023-04-15T03:27:29.690Z,100848.13
2023-04-15T03:30:00.313Z,100856.31
2023-04-15T03:32:30.902Z,100854.59
2023-04-15T03:34:58.071Z,100856.56
2023-04-15T03:37:24.941Z,100857.66
2023-04-15T03:39:51.904Z,100866.09
2023-04-15T03:42:18.850Z,100866.09
2023-04-15T03:44:45.972Z,100857.88
2023-04-15T03:47:13.265Z,100869.47
2023-04-15T03:49:40.239Z,100874.25
2023-04-15T03:52:07.195Z,100876.19
2023-04-15T03:54:34.145Z,100867.28
2023-04-15T03:57:01.462Z,100876.47
2023-04-15T03:59:28.478Z,100873.03
2023-04-15T04:01:55.706Z,100874.16
2023-04-15T04:04:22.901Z,100885.00
2023-04-15T04:06:49.933Z,100880.88
2023-04-15T04:09:17.017Z,100882.84
2023-04-15T04:11:45.638Z,100877.47
2023-04-15T04:14:12.538Z,100872.97
2023-04-15T04:16:39.521Z,100873.81
2023-04-15T04:19:06.452Z,100876.03
2023-04-15T04:21:34.330Z,100872.63
2023-04-15T04:24:01.446Z,100875.56
2023-04-15T04:26:28.329Z,100875.56
2023-04-15T04:28:55.480Z,100876.53
2023-04-15T04:31:22.558Z,100874.88
2023-04-15T04:33:49.540Z,100876.53
2023-04-15T04:36:16.540Z,100871.19
2023-04-15T04:38:43.481Z,100865.13
2023-04-15T04:41:10.752Z,100870.59
2023-04-15T04:43:37.637Z,100880.47
2023-04-15T04:46:04.613Z,100878.75
2023-04-15T04:48:31.713Z,100878.75
2023-04-15T04:50:59.349Z,100886.09
2023-04-15T04:53:26.520Z,100883.63
2023-04-15T04:55:53.632Z,100886.59
2023-04-15T04:58:20.792Z,100887.09
2023-04-15T05:00:48.061Z,100885.41
2023-04-15T05:03:15.247Z,100886.22
2023-04-15T05:05:42.604Z,100887.09
2023-04-15T05:08:09.595Z,100895.50
2023-04-15T05:10:36.613Z,100897.22
2023-04-15T05:13:03.646Z,100901.47
2023-04-15T05:15:30.747Z,100904.50
2023-04-15T05:17:57.802Z,100916.06
2023-04-15T05:20:24.937Z,100908.03
2023-04-15T05:22:51.937Z,100898.34
2023-04-15T05:25:19.459Z,100920.59
2023-04-15T05:27:46.514Z,100923.88
2023-04-15T05:30:13.943Z,100923.16
2023-04-15T05:32:41.016Z,100922.28
2023-04-15T05:35:08.690Z,100933.00
2023-04-15T05:37:35.662Z,100921.91
2023-04-15T05:40:02.799Z,100925.34
2023-04-15T05:42:29.816Z,100916.19
2023-04-15T05:44:56.797Z,100931.88
2023-04-15T05:47:23.963Z,100925.44
2023-04-15T05:49:51.157Z,100927.84
2023-04-15T05:52:18.217Z,100930.66
2023-04-15T05:54:45.427Z,100933.66
2023-04-15T05:57:12.908Z,100925.09
2023-04-15T05:59:39.808Z,100918.84
2023-04-15T06:02:07.688Z,100928.00
2023-04-15T06:04:34.819Z,100932.41
2023-04-15T06:07:01.908Z,100932.84
2023-04-15T06:09:31.881Z,100927.31
2023-04-15T06:11:59.326Z,100935.66
2023-04-15T06:14:26.285Z,100929.97
2023-04-15T06:16:53.227Z,100936.03
2023-04-15T06:19:20.739Z,100945.94
2023-04-15T06:21:47.736Z,100955.94
2023-04-15T06:24:14.833Z,100951.88
2023-04-15T06:26:41.771Z,100962.88
2023-04-15T06:29:08.898Z,100960.19
2023-04-15T06:31:36.044Z,100964.53
2023-04-15T06:34:03.102Z,100967.56
2023-04-15T06:36:30.129Z,100967.78
2023-04-15T06:38:57.357Z,100960.13
2023-04-15T06:41:24.746Z,100963.16
2023-04-15T06:43:51.752Z,100951.22
2023-04-15T06:46:19.058Z,100960.59
2023-04-15T06:48:46.264Z,100963.63
2023-04-15T06:51:13.415Z,100954.50
2023-04-15T06:53:42.358Z,100954.75
2023-04-15T06:56:09.835Z,100963.44
2023-04-15T06:58:37.297Z,100984.09
2023-04-15T07:01:04.618Z,100974.97
2023-04-15T07:03:32.843Z,100986.00
2023-04-15T07:06:00.123Z,100979.47
2023-04-15T07:08:27.068Z,100987.22
2023-04-15T07:10:54.563Z,100987.25
2023-04-15T07:13:21.932Z,100977.56
2023-04-15T07:15:48.873Z,100987.84
2023-04-15T07:18:16.127Z,100979.34
2023-04-15T07:20:43.957Z,100987.72
2023-04-15T07:23:10.912Z,100976.13
2023-04-15T07:25:37.962Z,100983.66
2023-04-15T07:28:05.097Z,100983.91
2023-04-15T07:30:32.094Z,100986.09
2023-04-15T07:32:59.490Z,100989.16
2023-04-15T07:35:26.709Z,100994.03
2023-04-15T07:37:53.671Z,100986.06
2023-04-15T07:40:20.887Z,100990.63
2023-04-15T07:42:49.706Z,100996.28
2023-04-15T07:45:17.031Z,101005.59
2023-04-15T07:47:44.207Z,101001.13
2023-04-15T07:50:14.855Z,101003.16
2023-04-15T07:52:42.194Z,100999.75
2023-04-15T07:55:09.839Z,101003.56
2023-04-15T07:57:37.752Z,101008.56
2023-04-15T08:00:09.005Z,101015.06
2023-04-15T08:02:43.121Z,101012.56
2023-04-15T08:05:11.444Z,101012.16
2023-04-15T08:07:38.614Z,101017.88
2023-04-15T08:10:06.701Z,101019.28
2023-04-15T08:12:33.755Z,101003.81
2023-04-15T08:15:02.159Z,101008.59
2023-04-15T08:17:29.204Z,101004.69
2023-04-15T08:19:56.222Z,101001.91
2023-04-15T08:22:24.078Z,101001.41
2023-04-15T08:24:51.535Z,101002.53
2023-04-15T08:27:19.056Z,101005.56
2023-04-15T08:29:46.057Z,101006.94
2023-04-15T08:32:13.128Z,101007.50
2023-04-15T08:34:40.325Z,101008.06
2023-04-15T08:37:07.268Z,101006.84
2023-04-15T08:39:37.155Z,101007.50
2023-04-15T08:42:08.321Z,100996.28
2023-04-15T08:44:39.169Z,100998.81
2023-04-15T08:47:08.828Z,100990.34
2023-04-15T08:49:43.167Z,100990.22
2023-04-15T08:52:10.670Z,101000.94
2023-04-15T08:54:38.917Z,100998.59
2023-04-15T08:57:06.904Z,100995.53
2023-04-15T08:59:33.797Z,101005.38
2023-04-15T09:02:01.406Z,101004.22
2023-04-15T09:04:29.064Z,101004.47
2023-04-15T09:06:57.381Z,101008.84
2023-04-15T09:09:24.417Z,101003.66
2023-04-15T09:11:52.264Z,101003.03
2023-04-15T09:14:19.215Z,101008.63
2023-04-15T09:16:59.997Z,100997.16
2023-04-15T09:19:27.280Z,100979.78
2023-04-15T09:21:58.942Z,100979.69
2023-04-15T09:24:33.912Z,100979.47
2023-04-15T09:27:01.211Z,100976.69
2023-04-15T09:29:28.159Z,100980.00
2023-04-15T09:31:55.513Z,100964.28
2023-04-15T09:34:36.317Z,100965.38
2023-04-15T09:37:04.244Z,100954.84
2023-04-15T09:39:52.696Z,100944.88
2023-04-15T09:42:27.020Z,100963.88
2023-04-15T09:44:54.204Z,100954.06
2023-04-15T09:47:29.142Z,100953.84
2023-04-15T09:49:57.896Z,100970.81
2023-04-15T09:52:24.868Z,100957.22
2023-04-15T09:54:55.528Z,100973.63
2023-04-15T09:57:23.763Z,100971.16
2023-04-15T09:59:53.558Z,100966.13
2023-04-15T10:02:23.654Z,100971.22
2023-04-15T10:04:52.773Z,100958.97
2023-04-15T10:07:22.586Z,100954.88
2023-04-15T10:09:50.147Z,100953.44
2023-04-15T10:12:20.400Z,100954.72
2023-04-15T10:15:00.184Z,100949.09
2023-04-15T10:17:33.910Z,100937.72
2023-04-15T10:20:05.493Z,100930.78
2023-04-15T10:22:33.371Z,100926.56
2023-04-15T10:25:01.290Z,100923.72
2023-04-15T10:27:29.141Z,100932.16
2023-04-15T10:29:57.335Z,100935.22
2023-04-15T10:32:25.907Z,100932.16
2023-04-15T10:34:54.724Z,100949.38
2023-04-15T10:37:33.324Z,100954.69
2023-04-15T10:40:00.237Z,100962.03
2023-04-15T10:42:35.149Z,100963.56
2023-04-15T10:45:02.133Z,100972.25
2023-04-15T10:47:29.177Z,100966.16
2023-04-15T10:50:01.251Z,100968.09
2023-04-15T10:52:29.548Z,100970.13
2023-04-15T10:55:16.065Z,100963.59
2023-04-15T10:57:43.871Z,100959.44
2023-04-15T11:00:11.635Z,100956.25
2023-04-15T11:02:45.378Z,100955.09
2023-04-15T11:05:16.845Z,100966.13
2023-04-15T11:07:49.538Z,100964.56
2023-04-15T11:10:26.013Z,100959.69
2023-04-15T11:13:00.045Z,100973.28
2023-04-15T11:15:45.915Z,100964.75
2023-04-15T11:18:14.237Z,100964.72
2023-04-15T11:20:45.657Z,100965.97
2023-04-15T11:23:14.801Z,100957.00
2023-04-15T11:25:44.092Z,100953.03
2023-04-15T11:28:12.738Z,100954.09
2023-04-15T11:30:40.963Z,100945.22
2023-04-15T11:33:10.901Z,100944.72
2023-04-15T11:35:38.561Z,100936.47
2023-04-15T11:38:08.911Z,100940.47
2023-04-15T11:40:36.316Z,100933.34
2023-04-15T11:43:20.398Z,100940.88
2023-04-15T11:45:57.578Z,100934.72
2023-04-15T11:48:29.546Z,100953.38
2023-04-15T11:51:04.938Z,100931.22
2023-04-15T11:53:48.146Z,100935.44
2023-04-15T11:56:23.116Z,100947.63
2023-04-15T11:58:58.721Z,100926.59
2023-04-15T12:01:52.575Z,100925.19
2023-04-15T12:04:25.247Z,100907.88
2023-04-15T12:06:53.227Z,100917.34
2023-04-15T12:09:21.315Z,100908.72
2023-04-15T12:11:53.990Z,100916.13
2023-04-15T12:14:34.187Z,100908.34
2023-04-15T12:17:06.289Z,100921.16
2023-04-15T12:19:45.647Z,100919.84
2023-04-15T12:22:15.997Z,100928.59
2023-04-15T12:24:47.119Z,100923.88
2023-04-15T12:27:16.112Z,100919.66
2023-04-15T12:29:44.084Z,100921.47
2023-04-15T12:32:12.909Z,100918.13
2023-04-15T12:34:40.847Z,100921.50
2023-04-15T12:37:10.974Z,100919.56
2023-04-15T12:39:44.106Z,100921.38
2023-04-15T12:42:12.275Z,100915.56
2023-04-15T12:44:40.453Z,100912.00
2023-04-15T12:47:08.835Z,100917.44
2023-04-15T12:49:35.792Z,100920.94
2023-04-15T12:52:03.927Z,100938.50
2023-04-15T12:54:31.937Z,100915.97
2023-04-15T12:57:00.042Z,100922.84
2023-04-15T12:59:27.052Z,100917.03
2023-04-15T13:01:54.973Z,100923.47
2023-04-15T13:04:22.490Z,100928.47
2023-04-15T13:06:49.981Z,100930.16
2023-04-15T13:09:16.990Z,100919.00
2023-04-15T13:11:44.233Z,100910.91
2023-04-15T13:14:13.920Z,100917.41
2023-04-15T13:16:47.662Z,100916.69
2023-04-15T13:19:14.950Z,100922.16
2023-04-15T13:21:41.829Z,100921.47
2023-04-15T13:24:10.295Z,100916.84
2023-04-15T13:26:37.978Z,100915.56
2023-04-15T13:29:05.025Z,100917.06
2023-04-15T13:31:32.222Z,100912.97
2023-04-15T13:33:59.304Z,100918.91
2023-04-15T13:36:27.379Z,100923.25
2023-04-15T13:38:54.657Z,100922.34
2023-04-15T13:41:22.063Z,100902.22
2023-04-15T13:43:49.019Z,100909.84
2023-04-15T13:46:16.185Z,100935.31
2023-04-15T13:48:43.321Z,100946.47
2023-04-15T13:51:10.496Z,100934.44
2023-04-15T13:53:38.428Z,100927.50
2023-04-15T13:56:10.157Z,100929.25
2023-04-15T13:58:37.869Z,100928.72
2023-04-15T14:01:06.935Z,100933.25
2023-04-15T14:03:38.314Z,100911.38
2023-04-15T14:06:06.514Z,100906.53
2023-04-15T14:08:33.861Z,100937.22
2023-04-15T14:11:01.055Z,100913.94
2023-04-15T14:13:28.077Z,100937.44
2023-04-15T14:15:55.561Z,100939.75
2023-04-15T14:18:22.655Z,100939.19
2023-04-15T14:20:49.928Z,100936.03
2023-04-15T14:23:16.925Z,100945.63
2023-04-15T14:25:45.518Z,100929.25
2023-04-15T14:28:13.833Z,100916.88
2023-04-15T14:30:40.964Z,100930.16
2023-04-15T14:33:08.006Z,100947.28
2023-04-15T14:35:37.083Z,100930.84
2023-04-15T14:38:04.204Z,100935.56
2023-04-15T14:40:31.355Z,100920.25
2023-04-15T14:42:58.305Z,100931.00
2023-04-15T14:45:25.553Z,100939.19
2023-04-15T14:47:53.408Z,100937.94
2023-04-15T14:50:20.491Z,100952.94
2023-04-15T14:52:47.619Z,100974.31
2023-04-15T14:55:14.639Z,100993.94
2023-04-15T14:57:42.880Z,100970.91
2023-04-15T15:00:13.769Z,100949.81
2023-04-15T15:02:43.750Z,100980.09
2023-04-15T15:05:12.172Z,100943.72
2023-04-15T15:07:41.121Z,100926.72
2023-04-15T15:10:08.559Z,100937.06
2023-04-15T15:12:35.891Z,100976.84
2023-04-15T15:15:12.237Z,100979.09
2023-04-15T15:17:39.818Z,100968.84
2023-04-15T15:20:09.642Z,100997.69
2023-04-15T15:22:36.606Z,100976.50
2023-04-15T15:25:03.747Z,100979.31
2023-04-15T15:27:30.753Z,100964.88
2023-04-15T15:29:58.639Z,100960.13
2023-04-15T15:32:25.921Z,100975.41
2023-04-15T15:34:53.443Z,100995.44
2023-04-15T15:37:20.449Z,101010.72
2023-04-15T15:39:48.279Z,100987.09
2023-04-15T15:42:15.516Z,101006.59
2023-04-15T15:44:42.519Z,100981.09
2023-04-15T15:47:09.576Z,101004.34
2023-04-15T15:49:36.645Z,100992.91
2023-04-15T15:52:03.611Z,101003.31
2023-04-15T15:54:30.621Z,100995.06
2023-04-15T15:56:57.684Z,101005.81
2023-04-15T15:59:25.662Z,100999.56
2023-04-15T16:01:52.871Z,101015.22
2023-04-15T16:04:20.188Z,101033.50
2023-04-15T16:06:47.494Z,101012.41
2023-04-15T16:09:14.943Z,101021.38
2023-04-15T16:11:41.959Z,101015.47
2023-04-15T16:14:08.919Z,101033.78
2023-04-15T16:16:36.039Z,101028.59
2023-04-15T16:19:03.156Z,101025.78
2023-04-15T16:21:31.285Z,101027.75
2023-04-15T16:23:58.288Z,101041.38
2023-04-15T16:26:25.262Z,101035.81
2023-04-15T16:28:52.173Z,101021.31
2023-04-15T16:31:19.070Z,101018.03
2023-04-15T16:33:46.263Z,101026.88
2023-04-15T16:36:13.247Z,101022.28
2023-04-15T16:38:40.202Z,101029.94
2023-04-15T16:41:07.275Z,101022.31
2023-04-15T16:43:34.166Z,101021.78
2023-04-15T16:46:01.354Z,101026.06
2023-04-15T16:48:28.423Z,101033.72
2023-04-15T16:50:55.432Z,101034.16
2023-04-15T16:53:22.383Z,101035.84
2023-04-15T16:55:49.359Z,101033.94
2023-04-15T16:58:16.434Z,101040.88
2023-04-15T17:00:43.486Z,101047.28
2023-04-15T17:03:10.840Z,101052.41
2023-04-15T17:05:38.258Z,101042.50
2023-04-15T17:08:05.893Z,101046.22
2023-04-15T17:10:32.855Z,101058.25
2023-04-15T17:13:00.138Z,101053.88
2023-04-15T17:15:27.301Z,101062.03
2023-04-15T17:17:54.683Z,101054.94
2023-04-15T17:20:21.771Z,101048.50
2023-04-15T17:22:49.223Z,101053.88
2023-04-15T17:25:16.199Z,101050.34
2023-04-15T17:27:43.160Z,101053.06
2023-04-15T17:30:10.861Z,101061.81
2023-04-15T17:32:39.505Z,101061.38
2023-04-15T17:35:07.395Z,101061.38
2023-04-15T17:37:35.362Z,101058.53
2023-04-15T17:40:02.467Z,101064.22
2023-04-15T17:42:29.447Z,101060.69
2023-04-15T17:44:56.433Z,101059.56
2023-04-15T17:47:23.425Z,101064.09
2023-04-15T17:49:50.576Z,101069.47
2023-04-15T17:52:17.770Z,101077.72
2023-04-15T17:54:46.208Z,101073.75
2023-04-15T17:57:13.186Z,101076.56
2023-04-15T17:59:44.108Z,101075.03
2023-04-15T18:02:11.719Z,101075.72
2023-04-15T18:04:39.624Z,101070.97
2023-04-15T18:07:06.784Z,101071.50
2023-04-15T18:09:33.745Z,101079.16
2023-04-15T18:12:02.150Z,101075.19
2023-04-15T18:14:34.583Z,101078.63
2023-04-15T18:17:05.462Z,101072.09
2023-04-15T18:19:32.727Z,101078.44
2023-04-15T18:22:03.357Z,101084.56
2023-04-15T18:24:30.473Z,101093.91
2023-04-15T18:26:57.600Z,101092.19
2023-04-15T18:29:25.457Z,101082.28
2023-04-15T18:31:53.090Z,101089.38
2023-04-15T18:34:20.292Z,101094.16
2023-04-15T18:36:47.233Z,101096.88
2023-04-15T18:39:14.541Z,101103.81
2023-04-15T18:41:41.433Z,101109.78
2023-04-15T18:44:08.488Z,101113.44
2023-04-15T18:46:35.541Z,101110.91
2023-04-15T18:49:02.645Z,101126.75
2023-04-15T18:51:30.164Z,101135.81
2023-04-15T18:53:57.188Z,101134.53
2023-04-15T18:56:24.262Z,101137.25
2023-04-15T18:59:08.948Z,101137.25
2023-04-15T19:01:38.230Z,101137.25
2023-04-15T19:04:05.424Z,101142.38
2023-04-15T19:06:32.478Z,101153.38
2023-04-15T19:08:59.514Z,101154.66
2023-04-15T19:11:26.540Z,101160.34
2023-04-15T19:13:53.724Z,101170.38
2023-04-15T19:16:21.144Z,101169.09
2023-04-15T19:18:48.181Z,101169.81
2023-04-15T19:21:15.632Z,101174.22
2023-04-15T19:23:43.348Z,101184.00
2023-04-15T19:26:11.694Z,101185.69
2023-04-15T19:28:38.689Z,101197.31
2023-04-15T19:31:06.848Z,101196.19
2023-04-15T19:33:33.918Z,101197.91
2023-04-15T19:36:05.962Z,101200.72
2023-04-15T19:38:37.591Z,101201.59
2023-04-15T19:41:04.623Z,101206.38
2023-04-15T19:43:32.964Z,101207.50
2023-04-15T19:46:00.245Z,101214.84
2023-04-15T19:48:27.354Z,101220.25
2023-04-15T19:50:54.320Z,101221.50
2023-04-15T19:53:21.233Z,101215.28
2023-04-15T19:55:49.105Z,101231.56
2023-04-15T19:58:16.261Z,101245.97
2023-04-15T20:00:43.328Z,101260.69
2023-04-15T20:03:10.859Z,101247.91
2023-04-15T20:05:41.078Z,101243.09
2023-04-15T20:08:08.343Z,101253.00
2023-04-15T20:10:36.952Z,101254.97
2023-04-15T20:13:04.213Z,101247.28
2023-04-15T20:15:31.497Z,101253.53
2023-04-15T20:17:58.528Z,101250.09
2023-04-15T20:20:25.682Z,101257.72
2023-04-15T20:22:53.247Z,101253.75
2023-04-15T20:25:20.606Z,101251.19
2023-04-15T20:27:47.530Z,101255.13
2023-04-15T20:30:14.606Z,101263.84
2023-04-15T20:32:41.944Z,101288.22
2023-04-15T20:35:09.202Z,101309.97
2023-04-15T20:37:40.708Z,101307.44
2023-04-15T20:40:08.495Z,101310.22
2023-04-15T20:42:35.563Z,101314.47
2023-04-15T20:45:02.895Z,101325.38
2023-04-15T20:47:30.375Z,101337.72
2023-04-15T20:49:57.445Z,101346.50
2023-04-15T20:52:24.407Z,101349.03
2023-04-15T20:54:51.718Z,101351.34
2023-04-15T20:57:20.356Z,101346.81
2023-04-15T20:59:47.669Z,101347.81
2023-04-15T21:02:14.760Z,101334.91
2023-04-15T21:04:41.931Z,101346.63
2023-04-15T21:07:10.211Z,101356.66
2023-04-15T21:09:38.702Z,101348.72
2023-04-15T21:12:05.639Z,101356.91
2023-04-15T21:14:32.665Z,101357.78
2023-04-15T21:16:59.717Z,101352.66
2023-04-15T21:19:26.938Z,101358.91
2023-04-15T21:21:53.944Z,101352.78
2023-04-15T21:24:20.961Z,101353.75
2023-04-15T21:26:47.894Z,101352.91
2023-04-15T21:29:14.966Z,101361.84
2023-04-15T21:31:42.182Z,101372.69
2023-04-15T21:34:14.904Z,101380.06
2023-04-15T21:36:44.719Z,101383.84
2023-04-15T21:39:11.607Z,101385.72
2023-04-15T21:41:38.573Z,101386.53
2023-04-15T21:44:05.809Z,101383.41
2023-04-15T21:46:35.517Z,101385.09
2023-04-15T21:49:03.700Z,101392.69
2023-04-15T21:51:31.757Z,101392.69
2023-04-15T21:53:59.375Z,101396.38
2023-04-15T21:56:26.650Z,101390.72
2023-04-15T21:58:59.054Z,101392.69
2023-04-15T22:01:27.104Z,101386.44
2023-04-15T22:03:54.398Z,101393.81
2023-04-15T22:06:21.875Z,101388.44
2023-04-15T22:08:57.358Z,101396.38
2023-04-15T22:11:28.639Z,101399.19
2023-04-15T22:13:57.476Z,101399.19
2023-04-15T22:16:27.978Z,101399.19
2023-04-15T22:18:55.883Z,101394.06
2023-04-15T22:21:23.427Z,101396.59
2023-04-15T22:23:51.597Z,101390.38
2023-04-15T22:26:18.852Z,101392.34
2023-04-15T22:28:45.958Z,101396.88
2023-04-15T22:31:14.354Z,101398.81
2023-04-15T22:33:41.501Z,101399.94
2023-04-15T22:36:08.630Z,101395.66
2023-04-15T22:38:35.879Z,101411.94
2023-04-15T22:41:02.798Z,101403.00
2023-04-15T22:43:29.846Z,101406.66
2023-04-15T22:45:56.917Z,101417.41
2023-04-15T22:48:23.999Z,101418.50
2023-04-15T22:50:51.045Z,101421.19
2023-04-15T22:53:20.779Z,101424.97
2023-04-15T22:55:48.859Z,101424.38
2023-04-15T22:58:17.283Z,101418.38
2023-04-15T23:00:44.980Z,101422.56
2023-04-15T23:03:12.188Z,101415.47
2023-04-15T23:05:41.382Z,101418.28
2023-04-15T23:08:11.296Z,101407.28
2023-04-15T23:10:40.188Z,101409.38
2023-04-15T23:13:07.174Z,101409.25
2023-04-15T23:15:34.076Z,101408.25
2023-04-15T23:18:02.287Z,101410.34
2023-04-15T23:20:29.312Z,101416.59
2023-04-15T23:22:56.469Z,101415.72
2023-04-15T23:25:23.536Z,101415.72
2023-04-15T23:27:50.584Z,101415.72
2023-04-15T23:30:17.466Z,101419.38
2023-04-15T23:32:44.483Z,101427.44
2023-04-15T23:35:11.420Z,101427.44
2023-04-15T23:37:38.447Z,101428.19
2023-04-15T23:40:06.043Z,101438.31
2023-04-15T23:42:33.216Z,101432.94
2023-04-15T23:45:00.165Z,101431.25
2023-04-15T23:47:27.415Z,101435.50
2023-04-15T23:49:54.417Z,101427.44
2023-04-15T23:52:21.410Z,101436.72
2023-04-15T23:54:48.433Z,101443.06
2023-04-15T23:57:15.689Z,101432.47
2023-04-15T23:59:45.637Z,101433.56
